sensor_id;sensor_type;location;lat;lon;timestamp;pressure;altitude;pressure_sealevel;temperature
69435;BMP180;56625;54.322;18.582;2023-02-18T00:01:50;99061.40;;;7.00
69435;BMP180;56625;54.322;18.582;2023-02-18T00:04:18;99049.00;;;7.00
69435;BMP180;56625;54.322;18.582;2023-02-18T00:06:46;99066.40;;;7.00
69435;BMP180;56625;54.322;18.582;2023-02-18T00:09:14;99051.00;;;7.00
69435;BMP180;56625;54.322;18.582;2023-02-18T00:11:42;99066.40;;;7.10
69435;BMP180;56625;54.322;18.582;2023-02-18T00:14:14;99065.40;;;7.10
69435;BMP180;56625;54.322;18.582;2023-02-18T00:16:44;99067.40;;;7.00
69435;BMP180;56625;54.322;18.582;2023-02-18T00:19:17;99079.60;;;6.96
69435;BMP180;56625;54.322;18.582;2023-02-18T00:21:46;99082.00;;;6.90
69435;BMP180;56625;54.322;18.582;2023-02-18T00:24:15;99075.00;;;6.90
69435;BMP180;56625;54.322;18.582;2023-02-18T00:26:44;99071.00;;;6.80
69435;BMP180;56625;54.322;18.582;2023-02-18T00:29:12;99072.40;;;6.80
69435;BMP180;56625;54.322;18.582;2023-02-18T00:31:40;99079.80;;;6.80
69435;BMP180;56625;54.322;18.582;2023-02-18T00:34:10;99082.80;;;6.90
69435;BMP180;56625;54.322;18.582;2023-02-18T00:36:39;99085.40;;;7.00
69435;BMP180;56625;54.322;18.582;2023-02-18T00:39:10;99098.60;;;7.10
69435;BMP180;56625;54.322;18.582;2023-02-18T00:41:38;99094.60;;;7.06
69435;BMP180;56625;54.322;18.582;2023-02-18T00:44:08;99101.00;;;7.06
69435;BMP180;56625;54.322;18.582;2023-02-18T00:46:36;99095.80;;;7.10
69435;BMP180;56625;54.322;18.582;2023-02-18T00:49:05;99057.80;;;7.10
69435;BMP180;56625;54.322;18.582;2023-02-18T00:51:34;99119.80;;;7.10
69435;BMP180;56625;54.322;18.582;2023-02-18T00:54:02;99099.20;;;7.10
69435;BMP180;56625;54.322;18.582;2023-02-18T00:56:30;99103.80;;;7.00
69435;BMP180;56625;54.322;18.582;2023-02-18T00:58:58;99119.20;;;7.00
69435;BMP180;56625;54.322;18.582;2023-02-18T01:01:26;99126.00;;;6.92
69435;BMP180;56625;54.322;18.582;2023-02-18T01:03:55;99136.40;;;6.88
69435;BMP180;56625;54.322;18.582;2023-02-18T01:06:23;99143.60;;;6.80
69435;BMP180;56625;54.322;18.582;2023-02-18T01:08:50;99140.20;;;6.70
69435;BMP180;56625;54.322;18.582;2023-02-18T01:11:19;99151.80;;;6.60
69435;BMP180;56625;54.322;18.582;2023-02-18T01:13:46;99159.80;;;6.56
69435;BMP180;56625;54.322;18.582;2023-02-18T01:16:14;99164.60;;;6.50
69435;BMP180;56625;54.322;18.582;2023-02-18T01:18:44;99164.20;;;6.60
69435;BMP180;56625;54.322;18.582;2023-02-18T01:21:12;99146.00;;;6.60
69435;BMP180;56625;54.322;18.582;2023-02-18T01:23:40;99154.40;;;6.60
69435;BMP180;56625;54.322;18.582;2023-02-18T01:26:10;99146.60;;;6.62
69435;BMP180;56625;54.322;18.582;2023-02-18T01:28:40;99156.60;;;6.64
69435;BMP180;56625;54.322;18.582;2023-02-18T01:31:12;99158.40;;;6.70
69435;BMP180;56625;54.322;18.582;2023-02-18T01:33:41;99150.00;;;6.72
69435;BMP180;56625;54.322;18.582;2023-02-18T01:36:11;99171.60;;;6.80
69435;BMP180;56625;54.322;18.582;2023-02-18T01:38:39;99161.80;;;6.90
69435;BMP180;56625;54.322;18.582;2023-02-18T01:41:08;99154.40;;;6.90
69435;BMP180;56625;54.322;18.582;2023-02-18T01:43:38;99164.00;;;6.96
69435;BMP180;56625;54.322;18.582;2023-02-18T01:46:19;99144.40;;;6.98
69435;BMP180;56625;54.322;18.582;2023-02-18T01:48:59;99149.80;;;7.00
69435;BMP180;56625;54.322;18.582;2023-02-18T01:51:44;99161.80;;;7.00
69435;BMP180;56625;54.322;18.582;2023-02-18T01:54:28;99162.60;;;7.00
69435;BMP180;56625;54.322;18.582;2023-02-18T01:59:38;99152.60;;;7.00
69435;BMP180;56625;54.322;18.582;2023-02-18T02:02:13;99155.00;;;7.00
69435;BMP180;56625;54.322;18.582;2023-02-18T02:04:42;99146.20;;;7.00
69435;BMP180;56625;54.322;18.582;2023-02-18T02:07:11;99156.80;;;6.98
69435;BMP180;56625;54.322;18.582;2023-02-18T02:09:40;99164.40;;;6.96
69435;BMP180;56625;54.322;18.582;2023-02-18T02:12:42;99164.20;;;6.90
69435;BMP180;56625;54.322;18.582;2023-02-18T02:15:40;99161.80;;;6.90
69435;BMP180;56625;54.322;18.582;2023-02-18T02:24:21;99164.80;;;6.90
69435;BMP180;56625;54.322;18.582;2023-02-18T02:27:18;99186.20;;;6.90
69435;BMP180;56625;54.322;18.582;2023-02-18T02:35:59;99163.60;;;6.90
69435;BMP180;56625;54.322;18.582;2023-02-18T02:38:37;99173.20;;;6.90
69435;BMP180;56625;54.322;18.582;2023-02-18T02:46:51;99175.60;;;6.82
69435;BMP180;56625;54.322;18.582;2023-02-18T02:50:03;99178.40;;;6.80
69435;BMP180;56625;54.322;18.582;2023-02-18T02:52:40;99190.20;;;6.80
69435;BMP180;56625;54.322;18.582;2023-02-18T02:55:11;99161.60;;;6.80
69435;BMP180;56625;54.322;18.582;2023-02-18T02:57:49;99187.60;;;6.80
69435;BMP180;56625;54.322;18.582;2023-02-18T03:01:08;99182.60;;;6.80
69435;BMP180;56625;54.322;18.582;2023-02-18T03:03:29;99174.40;;;6.80
69435;BMP180;56625;54.322;18.582;2023-02-18T03:09:11;99183.40;;;6.80
69435;BMP180;56625;54.322;18.582;2023-02-18T03:11:58;99180.80;;;6.74
69435;BMP180;56625;54.322;18.582;2023-02-18T03:15:24;99196.80;;;6.70
69435;BMP180;56625;54.322;18.582;2023-02-18T03:17:58;99200.20;;;6.72
69435;BMP180;56625;54.322;18.582;2023-02-18T03:20:36;99202.60;;;6.76
69435;BMP180;56625;54.322;18.582;2023-02-18T03:23:17;99210.80;;;6.78
69435;BMP180;56625;54.322;18.582;2023-02-18T03:25:48;99223.20;;;6.80
69435;BMP180;56625;54.322;18.582;2023-02-18T03:28:20;99197.40;;;6.76
69435;BMP180;56625;54.322;18.582;2023-02-18T03:30:55;99198.60;;;6.80
69435;BMP180;56625;54.322;18.582;2023-02-18T03:33:34;99214.20;;;6.80
69435;BMP180;56625;54.322;18.582;2023-02-18T03:36:05;99209.60;;;6.70
69435;BMP180;56625;54.322;18.582;2023-02-18T03:41:09;99231.60;;;6.70
69435;BMP180;56625;54.322;18.582;2023-02-18T03:43:40;99224.40;;;6.70
69435;BMP180;56625;54.322;18.582;2023-02-18T03:46:08;99214.20;;;6.60
69435;BMP180;56625;54.322;18.582;2023-02-18T03:48:36;99229.20;;;6.60
69435;BMP180;56625;54.322;18.582;2023-02-18T03:51:04;99232.20;;;6.60
69435;BMP180;56625;54.322;18.582;2023-02-18T03:53:32;99237.60;;;6.52
69435;BMP180;56625;54.322;18.582;2023-02-18T03:56:00;99225.80;;;6.50
69435;BMP180;56625;54.322;18.582;2023-02-18T03:58:28;99241.40;;;6.50
69435;BMP180;56625;54.322;18.582;2023-02-18T04:00:56;99242.20;;;6.50
69435;BMP180;56625;54.322;18.582;2023-02-18T04:03:23;99244.60;;;6.50
69435;BMP180;56625;54.322;18.582;2023-02-18T04:05:51;99239.60;;;6.50
69435;BMP180;56625;54.322;18.582;2023-02-18T04:08:19;99255.20;;;6.50
69435;BMP180;56625;54.322;18.582;2023-02-18T04:10:47;99250.60;;;6.50
69435;BMP180;56625;54.322;18.582;2023-02-18T04:13:16;99251.40;;;6.50
69435;BMP180;56625;54.322;18.582;2023-02-18T04:15:45;99265.80;;;6.50
69435;BMP180;56625;54.322;18.582;2023-02-18T08:39:37;99566.60;;;7.00
69435;BMP180;56625;54.322;18.582;2023-02-18T08:42:06;99550.40;;;6.90
69435;BMP180;56625;54.322;18.582;2023-02-18T08:44:33;99567.00;;;6.90
69435;BMP180;56625;54.322;18.582;2023-02-18T08:47:00;99567.60;;;6.90
69435;BMP180;56625;54.322;18.582;2023-02-18T08:49:27;99578.80;;;6.80
69435;BMP180;56625;54.322;18.582;2023-02-18T08:51:55;99579.40;;;6.80
69435;BMP180;56625;54.322;18.582;2023-02-18T08:54:22;99584.00;;;6.70
69435;BMP180;56625;54.322;18.582;2023-02-18T08:56:48;99582.80;;;6.60
69435;BMP180;56625;54.322;18.582;2023-02-18T08:59:15;99580.60;;;6.60
69435;BMP180;56625;54.322;18.582;2023-02-18T09:01:41;99576.80;;;6.60
69435;BMP180;56625;54.322;18.582;2023-02-18T09:04:08;99595.40;;;6.60
69435;BMP180;56625;54.322;18.582;2023-02-18T09:06:38;99591.20;;;6.60
69435;BMP180;56625;54.322;18.582;2023-02-18T09:09:06;99597.20;;;6.68
69435;BMP180;56625;54.322;18.582;2023-02-18T09:11:33;99593.40;;;6.62
69435;BMP180;56625;54.322;18.582;2023-02-18T09:14:00;99592.80;;;6.62
69435;BMP180;56625;54.322;18.582;2023-02-18T09:16:26;99593.80;;;6.76
69435;BMP180;56625;54.322;18.582;2023-02-18T09:18:53;99601.60;;;6.80
69435;BMP180;56625;54.322;18.582;2023-02-18T09:21:24;99607.40;;;6.80
69435;BMP180;56625;54.322;18.582;2023-02-18T09:23:51;99604.20;;;6.80
69435;BMP180;56625;54.322;18.582;2023-02-18T09:26:21;99612.80;;;6.80
69435;BMP180;56625;54.322;18.582;2023-02-18T09:28:54;99617.80;;;6.90
69435;BMP180;56625;54.322;18.582;2023-02-18T09:31:25;99611.40;;;6.88
69435;BMP180;56625;54.322;18.582;2023-02-18T09:33:59;99628.00;;;6.90
69435;BMP180;56625;54.322;18.582;2023-02-18T09:36:27;99614.00;;;6.88
69435;BMP180;56625;54.322;18.582;2023-02-18T09:38:55;99612.80;;;6.90
69435;BMP180;56625;54.322;18.582;2023-02-18T09:41:26;99612.80;;;7.00
69435;BMP180;56625;54.322;18.582;2023-02-18T09:43:59;99612.60;;;7.10
69435;BMP180;56625;54.322;18.582;2023-02-18T09:46:36;99614.40;;;7.20
69435;BMP180;56625;54.322;18.582;2023-02-18T09:49:38;99623.60;;;7.30
69435;BMP180;56625;54.322;18.582;2023-02-18T09:52:21;99621.20;;;7.20
69435;BMP180;56625;54.322;18.582;2023-02-18T09:54:50;99624.80;;;7.10
69435;BMP180;56625;54.322;18.582;2023-02-18T09:57:27;99628.80;;;7.10
69435;BMP180;56625;54.322;18.582;2023-02-18T10:00:13;99620.40;;;7.10
69435;BMP180;56625;54.322;18.582;2023-02-18T10:02:57;99637.60;;;7.12
69435;BMP180;56625;54.322;18.582;2023-02-18T10:05:29;99636.40;;;7.20
69435;BMP180;56625;54.322;18.582;2023-02-18T10:08:03;99634.00;;;7.30
69435;BMP180;56625;54.322;18.582;2023-02-18T10:10:45;99627.40;;;7.30
69435;BMP180;56625;54.322;18.582;2023-02-18T10:13:23;99632.60;;;7.20
69435;BMP180;56625;54.322;18.582;2023-02-18T10:15:51;99640.20;;;7.20
69435;BMP180;56625;54.322;18.582;2023-02-18T10:18:41;99630.60;;;7.30
69435;BMP180;56625;54.322;18.582;2023-02-18T10:21:12;99635.60;;;7.30
69435;BMP180;56625;54.322;18.582;2023-02-18T10:23:56;99639.60;;;7.60
69435;BMP180;56625;54.322;18.582;2023-02-18T10:26:26;99632.60;;;7.60
69435;BMP180;56625;54.322;18.582;2023-02-18T10:28:54;99636.80;;;7.60
69435;BMP180;56625;54.322;18.582;2023-02-18T10:31:33;99634.60;;;7.68
69435;BMP180;56625;54.322;18.582;2023-02-18T10:36:54;99622.20;;;7.80
69435;BMP180;56625;54.322;18.582;2023-02-18T10:39:42;99630.20;;;7.70
69435;BMP180;56625;54.322;18.582;2023-02-18T10:45:18;99641.20;;;7.48
69435;BMP180;56625;54.322;18.582;2023-02-18T10:50:39;99639.60;;;7.20
69435;BMP180;56625;54.322;18.582;2023-02-18T10:55:53;99623.60;;;7.28
69435;BMP180;56625;54.322;18.582;2023-02-18T10:58:45;99630.40;;;7.30
69435;BMP180;56625;54.322;18.582;2023-02-18T11:01:15;99626.00;;;7.50
69435;BMP180;56625;54.322;18.582;2023-02-18T11:03:49;99629.80;;;7.60
69435;BMP180;56625;54.322;18.582;2023-02-18T11:06:26;99634.00;;;7.50
69435;BMP180;56625;54.322;18.582;2023-02-18T11:08:56;99634.00;;;7.50
69435;BMP180;56625;54.322;18.582;2023-02-18T11:11:37;99639.20;;;7.60
69435;BMP180;56625;54.322;18.582;2023-02-18T11:14:07;99633.00;;;7.72
69435;BMP180;56625;54.322;18.582;2023-02-18T11:16:45;99637.40;;;7.90
69435;BMP180;56625;54.322;18.582;2023-02-18T11:19:42;99642.60;;;7.92
69435;BMP180;56625;54.322;18.582;2023-02-18T11:22:18;99637.00;;;7.90
69435;BMP180;56625;54.322;18.582;2023-02-18T11:24:47;99643.80;;;7.70
69435;BMP180;56625;54.322;18.582;2023-02-18T11:30:16;99634.20;;;7.60
69435;BMP180;56625;54.322;18.582;2023-02-18T11:32:49;99639.80;;;7.60
69435;BMP180;56625;54.322;18.582;2023-02-18T11:35:23;99631.20;;;7.60
69435;BMP180;56625;54.322;18.582;2023-02-18T11:37:51;99636.00;;;7.60
69435;BMP180;56625;54.322;18.582;2023-02-18T11:40:34;99633.60;;;7.70
69435;BMP180;56625;54.322;18.582;2023-02-18T11:43:18;99640.80;;;7.90
69435;BMP180;56625;54.322;18.582;2023-02-18T11:45:46;99632.00;;;7.90
69435;BMP180;56625;54.322;18.582;2023-02-18T11:48:18;99634.80;;;7.90
69435;BMP180;56625;54.322;18.582;2023-02-18T11:50:52;99633.80;;;8.00
69435;BMP180;56625;54.322;18.582;2023-02-18T11:56:05;99643.40;;;7.70
69435;BMP180;56625;54.322;18.582;2023-02-18T11:58:44;99634.40;;;7.70
69435;BMP180;56625;54.322;18.582;2023-02-18T12:01:26;99631.80;;;7.80
69435;BMP180;56625;54.322;18.582;2023-02-18T12:04:05;99633.00;;;7.60
69435;BMP180;56625;54.322;18.582;2023-02-18T12:06:51;99630.00;;;7.60
69435;BMP180;56625;54.322;18.582;2023-02-18T12:09:30;99627.80;;;7.52
69435;BMP180;56625;54.322;18.582;2023-02-18T12:12:05;99633.00;;;7.50
69435;BMP180;56625;54.322;18.582;2023-02-18T12:14:34;99651.80;;;7.40
69435;BMP180;56625;54.322;18.582;2023-02-18T12:23:30;99640.00;;;7.40
69435;BMP180;56625;54.322;18.582;2023-02-18T12:26:28;99639.60;;;7.40
69435;BMP180;56625;54.322;18.582;2023-02-18T12:32:29;99647.40;;;7.38
69435;BMP180;56625;54.322;18.582;2023-02-18T12:35:32;99653.60;;;7.30
69435;BMP180;56625;54.322;18.582;2023-02-18T12:46:59;99657.60;;;7.16
69435;BMP180;56625;54.322;18.582;2023-02-18T12:58:17;99654.40;;;7.00
69435;BMP180;56625;54.322;18.582;2023-02-18T13:01:24;99654.80;;;7.00
69435;BMP180;56625;54.322;18.582;2023-02-18T13:06:47;99663.40;;;7.00
69435;BMP180;56625;54.322;18.582;2023-02-18T13:15:21;99653.20;;;6.90
69435;BMP180;56625;54.322;18.582;2023-02-18T13:17:51;99658.20;;;6.90
69435;BMP180;56625;54.322;18.582;2023-02-18T13:22:56;99647.20;;;6.96
69435;BMP180;56625;54.322;18.582;2023-02-18T13:25:23;99640.40;;;7.00
69435;BMP180;56625;54.322;18.582;2023-02-18T13:28:14;99643.00;;;7.00
69435;BMP180;56625;54.322;18.582;2023-02-18T13:31:06;99647.20;;;7.00
69435;BMP180;56625;54.322;18.582;2023-02-18T13:33:57;99647.40;;;7.00
69435;BMP180;56625;54.322;18.582;2023-02-18T13:39:17;99649.60;;;6.90
69435;BMP180;56625;54.322;18.582;2023-02-18T13:41:49;99625.80;;;6.90
69435;BMP180;56625;54.322;18.582;2023-02-18T13:46:52;99660.60;;;6.80
69435;BMP180;56625;54.322;18.582;2023-02-18T13:49:23;99659.60;;;6.80
69435;BMP180;56625;54.322;18.582;2023-02-18T13:51:53;99656.00;;;6.80
69435;BMP180;56625;54.322;18.582;2023-02-18T13:54:39;99655.60;;;6.80
69435;BMP180;56625;54.322;18.582;2023-02-18T13:57:21;99651.40;;;6.80
69435;BMP180;56625;54.322;18.582;2023-02-18T14:00:02;99651.60;;;6.84
69435;BMP180;56625;54.322;18.582;2023-02-18T14:02:34;99652.40;;;6.90
69435;BMP180;56625;54.322;18.582;2023-02-18T14:07:46;99651.80;;;6.90
69435;BMP180;56625;54.322;18.582;2023-02-18T14:26:32;99645.00;;;6.70
69435;BMP180;56625;54.322;18.582;2023-02-18T14:29:07;99648.60;;;6.70
69435;BMP180;56625;54.322;18.582;2023-02-18T14:31:52;99636.60;;;6.70
69435;BMP180;56625;54.322;18.582;2023-02-18T14:40:38;99634.00;;;6.60
69435;BMP180;56625;54.322;18.582;2023-02-18T14:49:49;99634.40;;;6.60
69435;BMP180;56625;54.322;18.582;2023-02-18T14:52:49;99640.80;;;6.50
69435;BMP180;56625;54.322;18.582;2023-02-18T14:55:32;99644.80;;;6.50
69435;BMP180;56625;54.322;18.582;2023-02-18T14:58:07;99655.80;;;6.50
69435;BMP180;56625;54.322;18.582;2023-02-18T15:00:40;99656.00;;;6.50
69435;BMP180;56625;54.322;18.582;2023-02-18T15:03:17;99661.20;;;6.48
69435;BMP180;56625;54.322;18.582;2023-02-18T15:05:51;99658.20;;;6.44
69435;BMP180;56625;54.322;18.582;2023-02-18T15:08:22;99661.40;;;6.40
69435;BMP180;56625;54.322;18.582;2023-02-18T15:11:04;99666.20;;;6.40
69435;BMP180;56625;54.322;18.582;2023-02-18T15:13:40;99659.40;;;6.36
69435;BMP180;56625;54.322;18.582;2023-02-18T15:16:26;99658.80;;;6.30
69435;BMP180;56625;54.322;18.582;2023-02-18T15:19:05;99653.40;;;6.30
69435;BMP180;56625;54.322;18.582;2023-02-18T15:21:41;99655.20;;;6.30
69435;BMP180;56625;54.322;18.582;2023-02-18T15:26:45;99647.60;;;6.22
69435;BMP180;56625;54.322;18.582;2023-02-18T15:29:27;99645.60;;;6.20
69435;BMP180;56625;54.322;18.582;2023-02-18T15:31:57;99653.00;;;6.20
69435;BMP180;56625;54.322;18.582;2023-02-18T15:34:36;99654.40;;;6.20
69435;BMP180;56625;54.322;18.582;2023-02-18T15:37:07;99655.40;;;6.10
69435;BMP180;56625;54.322;18.582;2023-02-18T15:39:35;99656.00;;;6.10
69435;BMP180;56625;54.322;18.582;2023-02-18T15:42:16;99661.40;;;6.10
69435;BMP180;56625;54.322;18.582;2023-02-18T15:44:48;99653.40;;;6.10
69435;BMP180;56625;54.322;18.582;2023-02-18T15:47:24;99657.00;;;6.10
69435;BMP180;56625;54.322;18.582;2023-02-18T15:49:58;99649.00;;;6.10
69435;BMP180;56625;54.322;18.582;2023-02-18T15:52:30;99655.00;;;6.10
69435;BMP180;56625;54.322;18.582;2023-02-18T15:55:09;99647.80;;;6.08
69435;BMP180;56625;54.322;18.582;2023-02-18T15:57:39;99653.20;;;6.00
69435;BMP180;56625;54.322;18.582;2023-02-18T16:00:18;99657.00;;;6.00
69435;BMP180;56625;54.322;18.582;2023-02-18T16:02:54;99661.40;;;6.00
69435;BMP180;56625;54.322;18.582;2023-02-18T16:05:26;99662.40;;;6.00
69435;BMP180;56625;54.322;18.582;2023-02-18T16:08:00;99663.20;;;6.00
69435;BMP180;56625;54.322;18.582;2023-02-18T16:13:03;99669.20;;;6.00
69435;BMP180;56625;54.322;18.582;2023-02-18T16:15:43;99673.80;;;6.00
69435;BMP180;56625;54.322;18.582;2023-02-18T16:21:21;99682.20;;;5.90
69435;BMP180;56625;54.322;18.582;2023-02-18T16:29:14;99682.60;;;5.88
69435;BMP180;56625;54.322;18.582;2023-02-18T16:31:41;99679.00;;;5.90
69435;BMP180;56625;54.322;18.582;2023-02-18T16:34:08;99681.00;;;5.80
69435;BMP180;56625;54.322;18.582;2023-02-18T16:36:35;99675.80;;;5.80
69435;BMP180;56625;54.322;18.582;2023-02-18T16:39:02;99678.20;;;5.80
69435;BMP180;56625;54.322;18.582;2023-02-18T16:41:29;99683.20;;;5.70
69435;BMP180;56625;54.322;18.582;2023-02-18T16:43:56;99685.20;;;5.70
69435;BMP180;56625;54.322;18.582;2023-02-18T16:46:24;99689.60;;;5.70
69435;BMP180;56625;54.322;18.582;2023-02-18T16:48:53;99690.80;;;5.70
69435;BMP180;56625;54.322;18.582;2023-02-18T16:51:33;99696.20;;;5.62
69435;BMP180;56625;54.322;18.582;2023-02-18T16:54:00;99694.40;;;5.60
69435;BMP180;56625;54.322;18.582;2023-02-18T16:56:31;99693.40;;;5.60
69435;BMP180;56625;54.322;18.582;2023-02-18T16:58:58;99693.40;;;5.60
69435;BMP180;56625;54.322;18.582;2023-02-18T17:01:33;99692.60;;;5.50
69435;BMP180;56625;54.322;18.582;2023-02-18T17:04:04;99701.60;;;5.50
69435;BMP180;56625;54.322;18.582;2023-02-18T17:06:33;99703.00;;;5.50
69435;BMP180;56625;54.322;18.582;2023-02-18T17:09:00;99707.40;;;5.50
69435;BMP180;56625;54.322;18.582;2023-02-18T17:11:34;99700.80;;;5.50
69435;BMP180;56625;54.322;18.582;2023-02-18T17:14:10;99706.00;;;5.40
69435;BMP180;56625;54.322;18.582;2023-02-18T17:16:38;99704.80;;;5.36
69435;BMP180;56625;54.322;18.582;2023-02-18T17:19:05;99709.80;;;5.30
69435;BMP180;56625;54.322;18.582;2023-02-18T17:21:31;99713.60;;;5.30
69435;BMP180;56625;54.322;18.582;2023-02-18T17:23:58;99735.20;;;5.30
69435;BMP180;56625;54.322;18.582;2023-02-18T17:26:29;99733.80;;;5.30
69435;BMP180;56625;54.322;18.582;2023-02-18T17:29:01;99743.60;;;5.30
69435;BMP180;56625;54.322;18.582;2023-02-18T17:31:35;99747.60;;;5.20
69435;BMP180;56625;54.322;18.582;2023-02-18T17:34:07;99751.80;;;5.20
69435;BMP180;56625;54.322;18.582;2023-02-18T17:36:34;99752.00;;;5.20
69435;BMP180;56625;54.322;18.582;2023-02-18T17:39:04;99747.60;;;5.10
69435;BMP180;56625;54.322;18.582;2023-02-18T17:41:31;99749.20;;;5.16
69435;BMP180;56625;54.322;18.582;2023-02-18T17:43:58;99763.60;;;5.20
69435;BMP180;56625;54.322;18.582;2023-02-18T17:46:25;99773.60;;;5.20
69435;BMP180;56625;54.322;18.582;2023-02-18T17:48:53;99786.40;;;5.20
69435;BMP180;56625;54.322;18.582;2023-02-18T17:51:26;99791.00;;;5.20
69435;BMP180;56625;54.322;18.582;2023-02-18T17:53:54;99791.00;;;5.20
69435;BMP180;56625;54.322;18.582;2023-02-18T17:56:21;99790.60;;;5.20
69435;BMP180;56625;54.322;18.582;2023-02-18T17:58:48;99806.40;;;5.28
69435;BMP180;56625;54.322;18.582;2023-02-18T18:01:16;99800.00;;;5.30
69435;BMP180;56625;54.322;18.582;2023-02-18T18:03:44;99800.00;;;5.30
69435;BMP180;56625;54.322;18.582;2023-02-18T18:06:16;99811.60;;;5.32
69435;BMP180;56625;54.322;18.582;2023-02-18T18:08:44;99813.20;;;5.36
69435;BMP180;56625;54.322;18.582;2023-02-18T18:11:28;99812.20;;;5.30
69435;BMP180;56625;54.322;18.582;2023-02-18T18:13:55;99813.40;;;5.30
69435;BMP180;56625;54.322;18.582;2023-02-18T18:16:23;99823.60;;;5.30
69435;BMP180;56625;54.322;18.582;2023-02-18T18:18:52;99818.80;;;5.30
69435;BMP180;56625;54.322;18.582;2023-02-18T18:21:33;99821.20;;;5.30
69435;BMP180;56625;54.322;18.582;2023-02-18T18:24:01;99822.80;;;5.30
69435;BMP180;56625;54.322;18.582;2023-02-18T18:26:29;99818.60;;;5.26
69435;BMP180;56625;54.322;18.582;2023-02-18T18:28:56;99827.20;;;5.30
69435;BMP180;56625;54.322;18.582;2023-02-18T18:31:23;99825.40;;;5.30
69435;BMP180;56625;54.322;18.582;2023-02-18T18:33:51;99832.00;;;5.28
69435;BMP180;56625;54.322;18.582;2023-02-18T18:36:19;99832.60;;;5.30
69435;BMP180;56625;54.322;18.582;2023-02-18T18:38:46;99831.60;;;5.24
69435;BMP180;56625;54.322;18.582;2023-02-18T18:41:18;99824.60;;;5.20
69435;BMP180;56625;54.322;18.582;2023-02-18T18:43:45;99838.80;;;5.20
69435;BMP180;56625;54.322;18.582;2023-02-18T18:46:12;99840.60;;;5.20
69435;BMP180;56625;54.322;18.582;2023-02-18T18:48:38;99844.60;;;5.20
69435;BMP180;56625;54.322;18.582;2023-02-18T18:51:05;99837.00;;;5.20
69435;BMP180;56625;54.322;18.582;2023-02-18T18:53:34;99840.60;;;5.20
69435;BMP180;56625;54.322;18.582;2023-02-18T18:56:05;99836.00;;;5.20
69435;BMP180;56625;54.322;18.582;2023-02-18T18:58:33;99840.20;;;5.20
69435;BMP180;56625;54.322;18.582;2023-02-18T19:01:03;99840.20;;;5.20
69435;BMP180;56625;54.322;18.582;2023-02-18T19:03:32;99850.00;;;5.20
69435;BMP180;56625;54.322;18.582;2023-02-18T19:06:00;99849.80;;;5.10
69435;BMP180;56625;54.322;18.582;2023-02-18T19:08:27;99846.60;;;5.10
69435;BMP180;56625;54.322;18.582;2023-02-18T19:10:56;99851.80;;;5.10
69435;BMP180;56625;54.322;18.582;2023-02-18T19:13:26;99845.80;;;5.10
69435;BMP180;56625;54.322;18.582;2023-02-18T19:16:07;99850.20;;;5.04
69435;BMP180;56625;54.322;18.582;2023-02-18T19:18:37;99848.80;;;5.10
69435;BMP180;56625;54.322;18.582;2023-02-18T19:21:04;99859.20;;;5.00
69435;BMP180;56625;54.322;18.582;2023-02-18T19:23:32;99848.60;;;5.00
69435;BMP180;56625;54.322;18.582;2023-02-18T19:25:59;99843.40;;;4.90
69435;BMP180;56625;54.322;18.582;2023-02-18T19:28:27;99845.80;;;4.90
69435;BMP180;56625;54.322;18.582;2023-02-18T19:30:54;99852.60;;;4.90
69435;BMP180;56625;54.322;18.582;2023-02-18T19:33:20;99854.20;;;4.84
69435;BMP180;56625;54.322;18.582;2023-02-18T19:35:47;99860.80;;;4.80
69435;BMP180;56625;54.322;18.582;2023-02-18T19:38:16;99869.00;;;4.80
69435;BMP180;56625;54.322;18.582;2023-02-18T19:40:44;99876.60;;;4.80
69435;BMP180;56625;54.322;18.582;2023-02-18T19:43:11;99876.00;;;4.80
69435;BMP180;56625;54.322;18.582;2023-02-18T19:45:45;99882.80;;;4.88
69435;BMP180;56625;54.322;18.582;2023-02-18T19:48:14;99885.80;;;4.90
69435;BMP180;56625;54.322;18.582;2023-02-18T19:50:42;99883.60;;;4.90
69435;BMP180;56625;54.322;18.582;2023-02-18T19:53:10;99887.40;;;4.90
69435;BMP180;56625;54.322;18.582;2023-02-18T19:55:38;99902.20;;;4.90
69435;BMP180;56625;54.322;18.582;2023-02-18T19:58:05;99894.40;;;4.90
69435;BMP180;56625;54.322;18.582;2023-02-18T20:00:32;99898.60;;;4.90
69435;BMP180;56625;54.322;18.582;2023-02-18T20:02:59;99901.80;;;4.90
69435;BMP180;56625;54.322;18.582;2023-02-18T20:05:26;99899.00;;;4.90
69435;BMP180;56625;54.322;18.582;2023-02-18T20:07:52;99906.60;;;4.90
69435;BMP180;56625;54.322;18.582;2023-02-18T20:10:19;99900.80;;;4.88
69435;BMP180;56625;54.322;18.582;2023-02-18T20:12:52;99907.00;;;4.90
69435;BMP180;56625;54.322;18.582;2023-02-18T20:15:20;99912.00;;;4.90
69435;BMP180;56625;54.322;18.582;2023-02-18T20:17:47;99918.80;;;4.88
69435;BMP180;56625;54.322;18.582;2023-02-18T20:20:15;99927.00;;;4.82
69435;BMP180;56625;54.322;18.582;2023-02-18T20:22:42;99933.80;;;4.80
69435;BMP180;56625;54.322;18.582;2023-02-18T20:25:08;99936.80;;;4.80
69435;BMP180;56625;54.322;18.582;2023-02-18T20:27:35;99943.80;;;4.80
69435;BMP180;56625;54.322;18.582;2023-02-18T20:30:09;99936.20;;;4.80
69435;BMP180;56625;54.322;18.582;2023-02-18T20:32:39;99938.80;;;4.80
69435;BMP180;56625;54.322;18.582;2023-02-18T20:35:07;99942.40;;;4.80
69435;BMP180;56625;54.322;18.582;2023-02-18T20:37:39;99949.60;;;4.80
69435;BMP180;56625;54.322;18.582;2023-02-18T20:40:07;99944.00;;;4.80
69435;BMP180;56625;54.322;18.582;2023-02-18T20:42:34;99941.20;;;4.80
69435;BMP180;56625;54.322;18.582;2023-02-18T20:45:02;99942.20;;;4.80
69435;BMP180;56625;54.322;18.582;2023-02-18T20:47:29;99942.00;;;4.80
69435;BMP180;56625;54.322;18.582;2023-02-18T20:49:59;99941.40;;;4.70
69435;BMP180;56625;54.322;18.582;2023-02-18T20:52:26;99940.60;;;4.70
69435;BMP180;56625;54.322;18.582;2023-02-18T20:54:55;99942.00;;;4.70
69435;BMP180;56625;54.322;18.582;2023-02-18T20:57:22;99948.00;;;4.70
69435;BMP180;56625;54.322;18.582;2023-02-18T20:59:49;99948.80;;;4.70
69435;BMP180;56625;54.322;18.582;2023-02-18T21:02:17;99957.60;;;4.70
69435;BMP180;56625;54.322;18.582;2023-02-18T21:04:43;99962.00;;;4.64
69435;BMP180;56625;54.322;18.582;2023-02-18T21:07:10;99975.60;;;4.68
69435;BMP180;56625;54.322;18.582;2023-02-18T21:09:39;99977.00;;;4.62
69435;BMP180;56625;54.322;18.582;2023-02-18T21:12:06;99983.00;;;4.62
69435;BMP180;56625;54.322;18.582;2023-02-18T21:14:35;99986.80;;;4.60